עמוד ראשי
METAR-TAF:

METAR-TAF

שדות תעופה :

נמל התעופה הבינלאומי חוסה חואקין דה אולמדו

גואיאקיל, אקוודור

קו רוחב: 02-09S, קו אורך: 079-53W, גובה: 4מטר

תצפית מזג אוויר נוכחית

הדו"ח נערך לפני 1 שעות ו 38דקות, בשעה 07:00 UTC
רוח 4קשר מכיוון דרום-מערב
טמפרטורת 24 צלסיוס
לחות 83%
לחץ 1011 hPa
ראות 10 קילומטר או יותר
מעט עננים בגובה 3000רגל
עננים פזורים בגובה 10000רגל

METAR: SEGU 160700Z 22004KT 9999 FEW030 SCT100 24/21 Q1011 NOSIG RMK A2985

זמן: 03:38 (08:38 UTC)

תחזית

הדו"ח נערך לפני 3 שעות ו 13דקות, בשעה 05:25 UTC
תחזית בתוקף מ 16 ב 06 UTC עד 17 ב 06 UTC
רוח 7קשר מכיוון דרום-מערב
ראות 10 קילומטר או יותר
עננים פזורים בגובה 2600רגל
עננים בינוניים בגובה 10000רגל
יעשה מ
16 ב 14 UTC עד 16 ב 16 UTC
רוח 6קשר מכיוון דרום/דרום-מזרח
מעט עננים בגובה 3000רגל
עננים פזורים בגובה 10000רגל
יעשה מ
16 ב 23 UTC עד 16 ב 24 UTC
רוח 9קשר מכיוון דרום-מערב

TAF: SEGU 160525Z 1606/1706 22007KT 9999 SCT026 BKN100 BECMG 1614/1616 15006KT FEW030 SCT100 BECMG 1623/1624 22009KT TX31/1620Z TN23/1610Z

תצפיות ותחזיות מזג אוויר לגבי יותר מ- 4,000 שדות תעופה ברחבי העולם. דוחות METAR ו- TAF.

התחנות הזמינות מסומנות בנקודות צהובות ואדומות על גבי המפה.

העבר את העכבר לנקודה הצבעונית על מנת לראות את שם התחנה.

לאחר מכן, לחץ כדי לראות את תוכן ואת תחזיות מזג האוויר.

כדי לשנות את המפה: לחץ על הכפתורים הירוקים עם הפלוס השחור כדי להתקרב; על הכפתור הירוק עם המקף כדי להתרחק; או בחיצים הירוקים למפות סמוכות.


METAR-TAF: